sensor_id;sensor_type;location;lat;lon;timestamp;P1;durP1;ratioP1;P2;durP2;ratioP2
74677;SDS011;67324;56.326;43.982;2023-04-22T00:00:05;3.08;;;1.90;;
74677;SDS011;67324;56.326;43.982;2023-04-22T00:02:34;2.08;;;1.80;;
74677;SDS011;67324;56.326;43.982;2023-04-22T00:05:02;1.88;;;1.50;;
74677;SDS011;67324;56.326;43.982;2023-04-22T00:07:29;2.30;;;1.73;;
74677;SDS011;67324;56.326;43.982;2023-04-22T00:09:55;2.70;;;2.08;;
74677;SDS011;67324;56.326;43.982;2023-04-22T00:12:21;2.63;;;1.85;;
74677;SDS011;67324;56.326;43.982;2023-04-22T00:14:47;2.13;;;1.80;;
74677;SDS011;67324;56.326;43.982;2023-04-22T00:17:13;2.38;;;1.90;;
74677;SDS011;67324;56.326;43.982;2023-04-22T00:19:40;2.35;;;1.70;;
74677;SDS011;67324;56.326;43.982;2023-04-22T00:22:06;2.03;;;1.60;;
74677;SDS011;67324;56.326;43.982;2023-04-22T00:24:32;2.30;;;1.70;;
74677;SDS011;67324;56.326;43.982;2023-04-22T00:26:57;2.13;;;1.52;;
74677;SDS011;67324;56.326;43.982;2023-04-22T00:29:24;2.50;;;1.80;;
74677;SDS011;67324;56.326;43.982;2023-04-22T00:31:50;2.53;;;1.80;;
74677;SDS011;67324;56.326;43.982;2023-04-22T00:37:00;2.15;;;1.50;;
74677;SDS011;67324;56.326;43.982;2023-04-22T00:39:26;2.50;;;1.80;;
74677;SDS011;67324;56.326;43.982;2023-04-22T00:41:52;2.53;;;1.67;;
74677;SDS011;67324;56.326;43.982;2023-04-22T00:44:18;2.72;;;1.95;;
74677;SDS011;67324;56.326;43.982;2023-04-22T00:46:44;2.67;;;1.70;;
74677;SDS011;67324;56.326;43.982;2023-04-22T00:49:10;2.38;;;1.67;;
74677;SDS011;67324;56.326;43.982;2023-04-22T00:51:36;2.45;;;2.00;;
74677;SDS011;67324;56.326;43.982;2023-04-22T00:54:02;3.15;;;2.00;;
74677;SDS011;67324;56.326;43.982;2023-04-22T00:56:29;1.88;;;1.48;;
74677;SDS011;67324;56.326;43.982;2023-04-22T00:58:57;2.53;;;1.50;;
74677;SDS011;67324;56.326;43.982;2023-04-22T01:01:24;2.45;;;1.73;;
74677;SDS011;67324;56.326;43.982;2023-04-22T01:03:50;2.97;;;1.75;;
74677;SDS011;67324;56.326;43.982;2023-04-22T01:06:17;2.58;;;1.38;;
74677;SDS011;67324;56.326;43.982;2023-04-22T01:08:44;2.42;;;1.45;;
74677;SDS011;67324;56.326;43.982;2023-04-22T01:11:11;1.80;;;1.38;;
74677;SDS011;67324;56.326;43.982;2023-04-22T01:13:38;1.73;;;1.40;;
74677;SDS011;67324;56.326;43.982;2023-04-22T01:16:03;2.20;;;1.55;;
74677;SDS011;67324;56.326;43.982;2023-04-22T01:18:34;2.40;;;1.70;;
74677;SDS011;67324;56.326;43.982;2023-04-22T01:21:01;1.67;;;1.48;;
74677;SDS011;67324;56.326;43.982;2023-04-22T01:23:27;1.95;;;1.55;;
74677;SDS011;67324;56.326;43.982;2023-04-22T01:25:54;2.40;;;1.65;;
74677;SDS011;67324;56.326;43.982;2023-04-22T01:28:20;2.17;;;1.42;;
74677;SDS011;67324;56.326;43.982;2023-04-22T01:30:48;2.45;;;1.63;;
74677;SDS011;67324;56.326;43.982;2023-04-22T01:33:14;2.08;;;1.48;;
74677;SDS011;67324;56.326;43.982;2023-04-22T01:35:41;1.80;;;1.52;;
74677;SDS011;67324;56.326;43.982;2023-04-22T01:38:08;2.13;;;1.42;;
74677;SDS011;67324;56.326;43.982;2023-04-22T01:40:53;1.95;;;1.52;;
74677;SDS011;67324;56.326;43.982;2023-04-22T01:43:19;2.75;;;1.40;;
74677;SDS011;67324;56.326;43.982;2023-04-22T01:45:45;1.95;;;1.60;;
74677;SDS011;67324;56.326;43.982;2023-04-22T01:48:11;2.35;;;1.50;;
74677;SDS011;67324;56.326;43.982;2023-04-22T01:50:37;2.83;;;1.33;;
74677;SDS011;67324;56.326;43.982;2023-04-22T01:53:03;2.30;;;1.48;;
74677;SDS011;67324;56.326;43.982;2023-04-22T01:55:32;2.55;;;1.60;;
74677;SDS011;67324;56.326;43.982;2023-04-22T01:58:00;1.90;;;1.50;;
74677;SDS011;67324;56.326;43.982;2023-04-22T02:00:27;2.28;;;1.52;;
74677;SDS011;67324;56.326;43.982;2023-04-22T02:02:53;1.92;;;1.50;;
74677;SDS011;67324;56.326;43.982;2023-04-22T02:05:19;2.17;;;1.52;;
74677;SDS011;67324;56.326;43.982;2023-04-22T02:07:45;2.05;;;1.60;;
74677;SDS011;67324;56.326;43.982;2023-04-22T02:10:15;1.90;;;1.45;;
74677;SDS011;67324;56.326;43.982;2023-04-22T02:12:40;2.25;;;1.65;;
74677;SDS011;67324;56.326;43.982;2023-04-22T02:15:06;2.10;;;1.70;;
74677;SDS011;67324;56.326;43.982;2023-04-22T02:17:33;2.25;;;1.55;;
74677;SDS011;67324;56.326;43.982;2023-04-22T02:20:00;2.22;;;1.52;;
74677;SDS011;67324;56.326;43.982;2023-04-22T02:22:31;2.50;;;1.70;;
74677;SDS011;67324;56.326;43.982;2023-04-22T02:24:57;1.80;;;1.42;;
74677;SDS011;67324;56.326;43.982;2023-04-22T02:27:22;1.63;;;1.25;;
74677;SDS011;67324;56.326;43.982;2023-04-22T02:30:07;1.63;;;1.20;;
74677;SDS011;67324;56.326;43.982;2023-04-22T02:32:34;2.38;;;1.50;;
74677;SDS011;67324;56.326;43.982;2023-04-22T02:35:22;2.47;;;1.40;;
74677;SDS011;67324;56.326;43.982;2023-04-22T02:37:50;1.95;;;1.48;;
74677;SDS011;67324;56.326;43.982;2023-04-22T02:40:17;2.33;;;1.48;;
74677;SDS011;67324;56.326;43.982;2023-04-22T02:42:45;1.73;;;1.40;;
74677;SDS011;67324;56.326;43.982;2023-04-22T02:45:13;1.83;;;1.50;;
74677;SDS011;67324;56.326;43.982;2023-04-22T02:47:39;1.60;;;1.33;;
74677;SDS011;67324;56.326;43.982;2023-04-22T02:50:05;2.38;;;1.38;;
74677;SDS011;67324;56.326;43.982;2023-04-22T02:52:32;2.30;;;1.48;;
74677;SDS011;67324;56.326;43.982;2023-04-22T02:54:59;2.92;;;1.65;;
74677;SDS011;67324;56.326;43.982;2023-04-22T02:57:25;2.22;;;1.38;;
74677;SDS011;67324;56.326;43.982;2023-04-22T02:59:52;2.03;;;1.50;;
74677;SDS011;67324;56.326;43.982;2023-04-22T03:02:19;1.77;;;1.40;;
74677;SDS011;67324;56.326;43.982;2023-04-22T03:05:00;2.10;;;1.45;;
74677;SDS011;67324;56.326;43.982;2023-04-22T03:07:29;2.58;;;1.50;;
74677;SDS011;67324;56.326;43.982;2023-04-22T03:09:55;2.25;;;1.40;;
74677;SDS011;67324;56.326;43.982;2023-04-22T03:12:40;2.28;;;1.50;;
74677;SDS011;67324;56.326;43.982;2023-04-22T03:15:06;1.85;;;1.33;;
74677;SDS011;67324;56.326;43.982;2023-04-22T03:17:34;2.50;;;1.70;;
74677;SDS011;67324;56.326;43.982;2023-04-22T03:20:19;2.10;;;1.42;;
74677;SDS011;67324;56.326;43.982;2023-04-22T03:22:46;2.05;;;1.30;;
74677;SDS011;67324;56.326;43.982;2023-04-22T03:25:13;1.67;;;1.25;;
74677;SDS011;67324;56.326;43.982;2023-04-22T03:27:45;1.90;;;1.30;;
74677;SDS011;67324;56.326;43.982;2023-04-22T03:30:11;1.45;;;1.30;;
74677;SDS011;67324;56.326;43.982;2023-04-22T03:32:37;2.05;;;1.50;;
74677;SDS011;67324;56.326;43.982;2023-04-22T03:35:26;1.90;;;1.40;;
74677;SDS011;67324;56.326;43.982;2023-04-22T03:37:54;2.42;;;1.40;;
74677;SDS011;67324;56.326;43.982;2023-04-22T03:40:25;1.90;;;1.42;;
74677;SDS011;67324;56.326;43.982;2023-04-22T03:42:52;2.17;;;1.58;;
74677;SDS011;67324;56.326;43.982;2023-04-22T03:45:20;2.25;;;1.50;;
74677;SDS011;67324;56.326;43.982;2023-04-22T03:47:53;1.88;;;1.30;;
74677;SDS011;67324;56.326;43.982;2023-04-22T03:50:24;1.80;;;1.40;;
74677;SDS011;67324;56.326;43.982;2023-04-22T03:52:52;1.90;;;1.27;;
74677;SDS011;67324;56.326;43.982;2023-04-22T03:55:36;1.95;;;1.45;;
74677;SDS011;67324;56.326;43.982;2023-04-22T03:58:02;3.00;;;1.42;;
74677;SDS011;67324;56.326;43.982;2023-04-22T04:00:28;1.85;;;1.45;;
74677;SDS011;67324;56.326;43.982;2023-04-22T04:03:05;2.00;;;1.50;;
74677;SDS011;67324;56.326;43.982;2023-04-22T04:05:31;1.80;;;1.40;;
74677;SDS011;67324;56.326;43.982;2023-04-22T04:07:57;1.80;;;1.40;;
74677;SDS011;67324;56.326;43.982;2023-04-22T04:10:24;1.63;;;1.38;;
74677;SDS011;67324;56.326;43.982;2023-04-22T04:12:51;2.13;;;1.30;;
74677;SDS011;67324;56.326;43.982;2023-04-22T04:15:19;1.88;;;1.30;;
74677;SDS011;67324;56.326;43.982;2023-04-22T04:17:46;2.53;;;1.45;;
74677;SDS011;67324;56.326;43.982;2023-04-22T04:20:15;1.70;;;1.60;;
74677;SDS011;67324;56.326;43.982;2023-04-22T04:22:40;1.80;;;1.38;;
74677;SDS011;67324;56.326;43.982;2023-04-22T04:25:08;2.10;;;1.40;;
74677;SDS011;67324;56.326;43.982;2023-04-22T04:27:39;1.67;;;1.50;;
74677;SDS011;67324;56.326;43.982;2023-04-22T04:30:08;1.70;;;1.50;;
74677;SDS011;67324;56.326;43.982;2023-04-22T04:32:39;2.17;;;1.20;;
74677;SDS011;67324;56.326;43.982;2023-04-22T04:35:10;1.83;;;1.30;;
74677;SDS011;67324;56.326;43.982;2023-04-22T04:37:42;2.00;;;1.40;;
74677;SDS011;67324;56.326;43.982;2023-04-22T04:40:08;1.88;;;1.40;;
74677;SDS011;67324;56.326;43.982;2023-04-22T04:42:59;2.05;;;1.50;;
74677;SDS011;67324;56.326;43.982;2023-04-22T04:45:33;1.70;;;1.17;;
74677;SDS011;67324;56.326;43.982;2023-04-22T04:48:01;1.88;;;1.40;;
74677;SDS011;67324;56.326;43.982;2023-04-22T04:50:33;2.10;;;1.40;;
74677;SDS011;67324;56.326;43.982;2023-04-22T04:53:01;1.70;;;1.40;;
74677;SDS011;67324;56.326;43.982;2023-04-22T04:55:33;2.08;;;1.20;;
74677;SDS011;67324;56.326;43.982;2023-04-22T04:58:04;1.50;;;1.40;;
74677;SDS011;67324;56.326;43.982;2023-04-22T05:00:30;1.60;;;1.30;;
74677;SDS011;67324;56.326;43.982;2023-04-22T05:02:56;1.80;;;1.27;;
74677;SDS011;67324;56.326;43.982;2023-04-22T05:05:22;2.13;;;1.42;;
74677;SDS011;67324;56.326;43.982;2023-04-22T05:07:48;2.17;;;1.25;;
74677;SDS011;67324;56.326;43.982;2023-04-22T05:10:15;2.00;;;1.30;;
74677;SDS011;67324;56.326;43.982;2023-04-22T05:12:40;1.40;;;1.08;;
74677;SDS011;67324;56.326;43.982;2023-04-22T05:15:13;1.70;;;1.20;;
74677;SDS011;67324;56.326;43.982;2023-04-22T05:17:40;1.65;;;1.30;;
74677;SDS011;67324;56.326;43.982;2023-04-22T05:20:06;1.98;;;1.40;;
74677;SDS011;67324;56.326;43.982;2023-04-22T05:22:33;1.77;;;1.27;;
74677;SDS011;67324;56.326;43.982;2023-04-22T05:25:01;1.63;;;1.30;;
74677;SDS011;67324;56.326;43.982;2023-04-22T05:27:31;1.85;;;1.33;;
74677;SDS011;67324;56.326;43.982;2023-04-22T05:29:57;1.95;;;1.33;;
74677;SDS011;67324;56.326;43.982;2023-04-22T05:32:30;2.10;;;1.20;;
74677;SDS011;67324;56.326;43.982;2023-04-22T05:34:56;1.77;;;1.20;;
74677;SDS011;67324;56.326;43.982;2023-04-22T05:37:22;1.52;;;1.10;;
74677;SDS011;67324;56.326;43.982;2023-04-22T05:39:49;2.63;;;1.40;;
74677;SDS011;67324;56.326;43.982;2023-04-22T05:42:15;2.00;;;1.40;;
74677;SDS011;67324;56.326;43.982;2023-04-22T05:44:42;1.70;;;1.20;;
74677;SDS011;67324;56.326;43.982;2023-04-22T05:47:08;2.20;;;1.23;;
74677;SDS011;67324;56.326;43.982;2023-04-22T05:49:34;2.25;;;1.20;;
74677;SDS011;67324;56.326;43.982;2023-04-22T05:52:22;1.48;;;1.20;;
74677;SDS011;67324;56.326;43.982;2023-04-22T05:54:55;1.52;;;1.30;;
74677;SDS011;67324;56.326;43.982;2023-04-22T05:57:21;1.33;;;1.10;;
74677;SDS011;67324;56.326;43.982;2023-04-22T06:10:50;1.85;;;1.50;;
74677;SDS011;67324;56.326;43.982;2023-04-22T06:13:16;1.55;;;1.17;;
74677;SDS011;67324;56.326;43.982;2023-04-22T06:15:42;1.98;;;1.10;;
74677;SDS011;67324;56.326;43.982;2023-04-22T06:18:08;1.95;;;1.35;;
74677;SDS011;67324;56.326;43.982;2023-04-22T06:20:53;1.80;;;1.20;;
74677;SDS011;67324;56.326;43.982;2023-04-22T06:23:20;1.90;;;1.40;;
74677;SDS011;67324;56.326;43.982;2023-04-22T06:25:46;1.63;;;1.13;;
74677;SDS011;67324;56.326;43.982;2023-04-22T06:28:13;1.77;;;1.20;;
74677;SDS011;67324;56.326;43.982;2023-04-22T06:33:22;1.67;;;1.25;;
74677;SDS011;67324;56.326;43.982;2023-04-22T06:35:49;2.00;;;1.13;;
74677;SDS011;67324;56.326;43.982;2023-04-22T06:38:15;1.30;;;1.10;;
74677;SDS011;67324;56.326;43.982;2023-04-22T06:40:57;1.83;;;1.20;;
74677;SDS011;67324;56.326;43.982;2023-04-22T06:43:27;1.67;;;1.30;;
74677;SDS011;67324;56.326;43.982;2023-04-22T06:46:11;2.03;;;1.30;;
74677;SDS011;67324;56.326;43.982;2023-04-22T06:48:55;1.65;;;1.20;;
74677;SDS011;67324;56.326;43.982;2023-04-22T06:51:53;1.77;;;1.30;;
74677;SDS011;67324;56.326;43.982;2023-04-22T06:54:19;1.70;;;1.10;;
74677;SDS011;67324;56.326;43.982;2023-04-22T06:56:45;1.60;;;1.20;;
74677;SDS011;67324;56.326;43.982;2023-04-22T06:59:11;1.98;;;1.30;;
74677;SDS011;67324;56.326;43.982;2023-04-22T07:01:37;1.40;;;1.20;;
74677;SDS011;67324;56.326;43.982;2023-04-22T07:04:03;1.98;;;1.27;;
74677;SDS011;67324;56.326;43.982;2023-04-22T07:06:29;1.83;;;1.33;;
74677;SDS011;67324;56.326;43.982;2023-04-22T07:08:55;1.38;;;1.10;;
74677;SDS011;67324;56.326;43.982;2023-04-22T07:11:21;1.48;;;1.20;;
74677;SDS011;67324;56.326;43.982;2023-04-22T07:13:56;1.23;;;1.02;;
74677;SDS011;67324;56.326;43.982;2023-04-22T07:16:22;1.50;;;1.05;;
74677;SDS011;67324;56.326;43.982;2023-04-22T07:18:49;1.90;;;1.30;;
74677;SDS011;67324;56.326;43.982;2023-04-22T07:21:15;1.70;;;1.10;;
74677;SDS011;67324;56.326;43.982;2023-04-22T07:23:41;1.67;;;1.38;;
74677;SDS011;67324;56.326;43.982;2023-04-22T07:29:10;1.70;;;1.10;;
74677;SDS011;67324;56.326;43.982;2023-04-22T07:31:55;2.10;;;1.10;;
74677;SDS011;67324;56.326;43.982;2023-04-22T07:34:22;1.13;;;1.00;;
74677;SDS011;67324;56.326;43.982;2023-04-22T07:36:48;2.10;;;1.30;;
74677;SDS011;67324;56.326;43.982;2023-04-22T07:39:16;1.98;;;1.20;;
74677;SDS011;67324;56.326;43.982;2023-04-22T07:41:42;1.83;;;1.10;;
74677;SDS011;67324;56.326;43.982;2023-04-22T07:44:08;1.40;;;1.05;;
74677;SDS011;67324;56.326;43.982;2023-04-22T07:46:35;1.50;;;1.17;;
74677;SDS011;67324;56.326;43.982;2023-04-22T07:49:00;1.70;;;1.10;;
74677;SDS011;67324;56.326;43.982;2023-04-22T07:51:26;1.92;;;1.20;;
74677;SDS011;67324;56.326;43.982;2023-04-22T07:53:52;1.85;;;1.20;;
74677;SDS011;67324;56.326;43.982;2023-04-22T07:56:18;2.53;;;1.10;;
74677;SDS011;67324;56.326;43.982;2023-04-22T07:58:44;1.75;;;1.20;;
74677;SDS011;67324;56.326;43.982;2023-04-22T08:01:10;1.65;;;1.23;;
74677;SDS011;67324;56.326;43.982;2023-04-22T08:03:36;1.70;;;1.25;;
74677;SDS011;67324;56.326;43.982;2023-04-22T08:06:01;1.48;;;1.08;;
74677;SDS011;67324;56.326;43.982;2023-04-22T08:08:27;2.28;;;1.23;;
74677;SDS011;67324;56.326;43.982;2023-04-22T08:10:53;1.52;;;1.10;;
74677;SDS011;67324;56.326;43.982;2023-04-22T08:13:19;1.50;;;1.10;;
74677;SDS011;67324;56.326;43.982;2023-04-22T08:15:45;1.73;;;1.10;;
74677;SDS011;67324;56.326;43.982;2023-04-22T08:18:11;1.35;;;1.10;;
74677;SDS011;67324;56.326;43.982;2023-04-22T08:20:37;1.85;;;1.10;;
74677;SDS011;67324;56.326;43.982;2023-04-22T08:23:02;1.83;;;1.30;;
74677;SDS011;67324;56.326;43.982;2023-04-22T08:25:28;1.50;;;1.10;;
74677;SDS011;67324;56.326;43.982;2023-04-22T08:27:55;1.48;;;1.10;;
74677;SDS011;67324;56.326;43.982;2023-04-22T08:30:21;1.90;;;1.20;;
74677;SDS011;67324;56.326;43.982;2023-04-22T08:32:47;1.80;;;1.27;;
74677;SDS011;67324;56.326;43.982;2023-04-22T08:35:13;1.40;;;1.10;;
74677;SDS011;67324;56.326;43.982;2023-04-22T08:37:40;1.98;;;1.10;;
74677;SDS011;67324;56.326;43.982;2023-04-22T08:40:06;1.33;;;0.98;;
74677;SDS011;67324;56.326;43.982;2023-04-22T08:42:33;1.42;;;1.05;;
74677;SDS011;67324;56.326;43.982;2023-04-22T08:44:59;2.28;;;1.30;;
74677;SDS011;67324;56.326;43.982;2023-04-22T08:47:30;1.27;;;1.00;;
74677;SDS011;67324;56.326;43.982;2023-04-22T08:49:58;1.90;;;1.30;;
74677;SDS011;67324;56.326;43.982;2023-04-22T08:52:29;1.30;;;1.05;;
74677;SDS011;67324;56.326;43.982;2023-04-22T08:54:56;1.50;;;1.30;;
74677;SDS011;67324;56.326;43.982;2023-04-22T08:57:22;1.33;;;1.08;;
74677;SDS011;67324;56.326;43.982;2023-04-22T08:59:48;2.00;;;1.30;;
74677;SDS011;67324;56.326;43.982;2023-04-22T09:02:16;2.05;;;1.45;;
74677;SDS011;67324;56.326;43.982;2023-04-22T09:04:45;2.10;;;1.50;;
74677;SDS011;67324;56.326;43.982;2023-04-22T09:07:31;1.63;;;1.23;;
74677;SDS011;67324;56.326;43.982;2023-04-22T09:09:57;2.00;;;1.40;;
74677;SDS011;67324;56.326;43.982;2023-04-22T09:12:24;3.08;;;1.80;;
74677;SDS011;67324;56.326;43.982;2023-04-22T09:14:50;2.28;;;1.52;;
74677;SDS011;67324;56.326;43.982;2023-04-22T09:17:17;2.38;;;1.77;;
74677;SDS011;67324;56.326;43.982;2023-04-22T09:19:57;3.03;;;1.85;;
74677;SDS011;67324;56.326;43.982;2023-04-22T09:22:47;2.85;;;1.80;;
74677;SDS011;67324;56.326;43.982;2023-04-22T09:25:32;3.50;;;1.85;;
74677;SDS011;67324;56.326;43.982;2023-04-22T09:28:01;2.97;;;1.80;;
74677;SDS011;67324;56.326;43.982;2023-04-22T09:30:31;2.70;;;2.10;;
74677;SDS011;67324;56.326;43.982;2023-04-22T09:33:00;4.32;;;2.60;;
74677;SDS011;67324;56.326;43.982;2023-04-22T09:35:31;2.30;;;1.90;;
74677;SDS011;67324;56.326;43.982;2023-04-22T09:37:58;4.05;;;2.20;;
74677;SDS011;67324;56.326;43.982;2023-04-22T09:40:25;3.03;;;2.10;;
74677;SDS011;67324;56.326;43.982;2023-04-22T09:42:53;3.33;;;2.20;;
74677;SDS011;67324;56.326;43.982;2023-04-22T09:48:16;2.83;;;1.90;;
74677;SDS011;67324;56.326;43.982;2023-04-22T09:50:45;3.35;;;2.10;;
74677;SDS011;67324;56.326;43.982;2023-04-22T09:53:32;2.90;;;2.13;;
74677;SDS011;67324;56.326;43.982;2023-04-22T09:56:01;5.30;;;2.60;;
74677;SDS011;67324;56.326;43.982;2023-04-22T09:58:29;3.92;;;2.20;;
74677;SDS011;67324;56.326;43.982;2023-04-22T10:00:55;4.00;;;2.05;;
74677;SDS011;67324;56.326;43.982;2023-04-22T10:03:22;3.00;;;2.22;;
74677;SDS011;67324;56.326;43.982;2023-04-22T10:05:48;3.47;;;1.92;;
74677;SDS011;67324;56.326;43.982;2023-04-22T10:08:14;5.03;;;2.22;;
74677;SDS011;67324;56.326;43.982;2023-04-22T10:10:41;4.35;;;2.38;;
74677;SDS011;67324;56.326;43.982;2023-04-22T10:13:08;3.58;;;2.10;;
74677;SDS011;67324;56.326;43.982;2023-04-22T10:15:34;4.22;;;1.98;;
74677;SDS011;67324;56.326;43.982;2023-04-22T10:18:03;4.45;;;2.05;;
74677;SDS011;67324;56.326;43.982;2023-04-22T10:20:32;5.22;;;2.25;;
74677;SDS011;67324;56.326;43.982;2023-04-22T10:23:04;3.80;;;2.05;;
74677;SDS011;67324;56.326;43.982;2023-04-22T10:25:36;4.45;;;2.33;;
74677;SDS011;67324;56.326;43.982;2023-04-22T10:28:05;4.55;;;2.28;;
74677;SDS011;67324;56.326;43.982;2023-04-22T10:30:35;3.78;;;2.35;;
74677;SDS011;67324;56.326;43.982;2023-04-22T10:33:35;5.88;;;2.50;;
74677;SDS011;67324;56.326;43.982;2023-04-22T10:41:27;6.65;;;2.60;;
74677;SDS011;67324;56.326;43.982;2023-04-22T10:43:56;4.18;;;2.30;;
74677;SDS011;67324;56.326;43.982;2023-04-22T10:49:09;5.18;;;2.90;;
74677;SDS011;67324;56.326;43.982;2023-04-22T10:57:13;5.32;;;2.83;;
74677;SDS011;67324;56.326;43.982;2023-04-22T10:59:58;4.18;;;2.50;;
74677;SDS011;67324;56.326;43.982;2023-04-22T11:02:25;5.05;;;2.90;;
74677;SDS011;67324;56.326;43.982;2023-04-22T11:04:51;5.00;;;2.85;;
74677;SDS011;67324;56.326;43.982;2023-04-22T11:07:44;6.20;;;3.13;;
74677;SDS011;67324;56.326;43.982;2023-04-22T11:10:12;6.85;;;2.60;;
74677;SDS011;67324;56.326;43.982;2023-04-22T11:12:59;8.30;;;2.50;;
74677;SDS011;67324;56.326;43.982;2023-04-22T11:15:28;5.28;;;3.47;;
74677;SDS011;67324;56.326;43.982;2023-04-22T11:17:55;4.60;;;2.40;;
74677;SDS011;67324;56.326;43.982;2023-04-22T11:20:21;6.32;;;2.95;;
74677;SDS011;67324;56.326;43.982;2023-04-22T11:22:49;5.95;;;3.00;;
74677;SDS011;67324;56.326;43.982;2023-04-22T11:25:20;8.68;;;3.58;;
74677;SDS011;67324;56.326;43.982;2023-04-22T11:27:47;4.00;;;2.70;;
74677;SDS011;67324;56.326;43.982;2023-04-22T11:30:15;5.30;;;2.60;;
74677;SDS011;67324;56.326;43.982;2023-04-22T11:35:17;5.47;;;2.60;;
74677;SDS011;67324;56.326;43.982;2023-04-22T11:37:47;6.68;;;2.90;;
74677;SDS011;67324;56.326;43.982;2023-04-22T11:40:15;6.28;;;3.10;;
74677;SDS011;67324;56.326;43.982;2023-04-22T11:42:43;6.00;;;2.70;;
74677;SDS011;67324;56.326;43.982;2023-04-22T11:45:09;6.90;;;2.78;;
74677;SDS011;67324;56.326;43.982;2023-04-22T11:47:36;5.55;;;2.72;;
74677;SDS011;67324;56.326;43.982;2023-04-22T11:50:04;4.93;;;2.67;;
74677;SDS011;67324;56.326;43.982;2023-04-22T11:52:44;5.72;;;2.95;;
74677;SDS011;67324;56.326;43.982;2023-04-22T11:58:46;4.25;;;2.80;;
74677;SDS011;67324;56.326;43.982;2023-04-22T12:00:53;5.60;;;2.95;;
74677;SDS011;67324;56.326;43.982;2023-04-22T12:03:21;7.55;;;3.15;;
74677;SDS011;67324;56.326;43.982;2023-04-22T12:06:10;7.00;;;2.90;;
74677;SDS011;67324;56.326;43.982;2023-04-22T12:08:36;6.50;;;3.58;;
74677;SDS011;67324;56.326;43.982;2023-04-22T12:11:09;4.40;;;2.90;;
74677;SDS011;67324;56.326;43.982;2023-04-22T12:16:08;5.93;;;2.90;;
74677;SDS011;67324;56.326;43.982;2023-04-22T12:21:11;4.85;;;2.72;;
74677;SDS011;67324;56.326;43.982;2023-04-22T12:26:18;6.45;;;2.85;;
74677;SDS011;67324;56.326;43.982;2023-04-22T12:28:46;4.22;;;2.78;;
74677;SDS011;67324;56.326;43.982;2023-04-22T12:31:13;5.80;;;2.80;;
74677;SDS011;67324;56.326;43.982;2023-04-22T12:33:39;4.35;;;3.20;;
74677;SDS011;67324;56.326;43.982;2023-04-22T12:36:06;4.00;;;2.80;;
74677;SDS011;67324;56.326;43.982;2023-04-22T12:38:32;7.10;;;3.13;;
74677;SDS011;67324;56.326;43.982;2023-04-22T12:40:59;5.18;;;2.90;;
74677;SDS011;67324;56.326;43.982;2023-04-22T12:43:25;4.57;;;2.80;;
74677;SDS011;67324;56.326;43.982;2023-04-22T12:45:51;7.20;;;3.22;;
74677;SDS011;67324;56.326;43.982;2023-04-22T12:48:17;6.70;;;3.00;;
74677;SDS011;67324;56.326;43.982;2023-04-22T12:50:43;5.82;;;3.22;;
74677;SDS011;67324;56.326;43.982;2023-04-22T12:53:09;4.53;;;2.88;;
74677;SDS011;67324;56.326;43.982;2023-04-22T12:55:35;6.38;;;3.00;;
74677;SDS011;67324;56.326;43.982;2023-04-22T12:58:01;5.13;;;2.90;;
74677;SDS011;67324;56.326;43.982;2023-04-22T13:00:28;5.40;;;2.95;;
74677;SDS011;67324;56.326;43.982;2023-04-22T13:02:54;5.88;;;2.85;;
74677;SDS011;67324;56.326;43.982;2023-04-22T13:05:20;4.22;;;2.90;;
74677;SDS011;67324;56.326;43.982;2023-04-22T13:07:46;5.53;;;3.30;;
74677;SDS011;67324;56.326;43.982;2023-04-22T13:10:13;5.00;;;2.70;;
74677;SDS011;67324;56.326;43.982;2023-04-22T13:12:41;4.63;;;3.13;;
74677;SDS011;67324;56.326;43.982;2023-04-22T13:15:08;4.78;;;2.92;;
74677;SDS011;67324;56.326;43.982;2023-04-22T13:17:35;5.68;;;3.10;;
74677;SDS011;67324;56.326;43.982;2023-04-22T13:20:02;5.28;;;2.78;;
74677;SDS011;67324;56.326;43.982;2023-04-22T13:22:30;4.88;;;2.80;;
74677;SDS011;67324;56.326;43.982;2023-04-22T13:24:57;4.95;;;2.70;;
74677;SDS011;67324;56.326;43.982;2023-04-22T13:27:22;3.97;;;2.85;;
74677;SDS011;67324;56.326;43.982;2023-04-22T13:29:48;4.70;;;2.72;;
74677;SDS011;67324;56.326;43.982;2023-04-22T13:32:14;5.25;;;3.08;;
74677;SDS011;67324;56.326;43.982;2023-04-22T13:34:40;5.28;;;3.08;;
74677;SDS011;67324;56.326;43.982;2023-04-22T13:37:06;4.95;;;3.13;;
74677;SDS011;67324;56.326;43.982;2023-04-22T13:39:32;5.47;;;3.20;;
74677;SDS011;67324;56.326;43.982;2023-04-22T13:41:58;4.55;;;3.00;;
74677;SDS011;67324;56.326;43.982;2023-04-22T13:44:24;5.00;;;3.08;;
74677;SDS011;67324;56.326;43.982;2023-04-22T13:46:50;4.03;;;2.80;;
74677;SDS011;67324;56.326;43.982;2023-04-22T13:49:16;6.28;;;3.30;;
74677;SDS011;67324;56.326;43.982;2023-04-22T13:51:42;7.20;;;3.05;;
74677;SDS011;67324;56.326;43.982;2023-04-22T13:54:08;4.63;;;3.10;;
74677;SDS011;67324;56.326;43.982;2023-04-22T13:56:34;4.10;;;2.92;;
74677;SDS011;67324;56.326;43.982;2023-04-22T13:59:00;6.28;;;3.28;;
74677;SDS011;67324;56.326;43.982;2023-04-22T14:01:25;4.47;;;3.03;;
74677;SDS011;67324;56.326;43.982;2023-04-22T14:03:52;6.35;;;2.90;;
74677;SDS011;67324;56.326;43.982;2023-04-22T14:06:18;4.85;;;3.28;;
74677;SDS011;67324;56.326;43.982;2023-04-22T14:08:44;4.05;;;3.13;;
74677;SDS011;67324;56.326;43.982;2023-04-22T14:11:11;5.30;;;2.97;;
74677;SDS011;67324;56.326;43.982;2023-04-22T14:13:37;5.63;;;3.28;;
74677;SDS011;67324;56.326;43.982;2023-04-22T14:16:04;4.13;;;2.90;;
74677;SDS011;67324;56.326;43.982;2023-04-22T14:18:34;5.47;;;3.20;;
74677;SDS011;67324;56.326;43.982;2023-04-22T14:21:02;4.57;;;2.67;;
74677;SDS011;67324;56.326;43.982;2023-04-22T14:23:30;4.40;;;2.42;;
74677;SDS011;67324;56.326;43.982;2023-04-22T14:25:57;5.85;;;2.75;;
74677;SDS011;67324;56.326;43.982;2023-04-22T14:28:23;4.53;;;2.83;;
74677;SDS011;67324;56.326;43.982;2023-04-22T14:30:49;5.55;;;3.13;;
74677;SDS011;67324;56.326;43.982;2023-04-22T14:33:15;4.97;;;3.03;;
74677;SDS011;67324;56.326;43.982;2023-04-22T14:35:41;5.57;;;2.97;;
74677;SDS011;67324;56.326;43.982;2023-04-22T14:38:08;5.90;;;2.92;;
74677;SDS011;67324;56.326;43.982;2023-04-22T14:40:35;5.38;;;2.90;;
74677;SDS011;67324;56.326;43.982;2023-04-22T14:43:03;4.38;;;2.55;;
74677;SDS011;67324;56.326;43.982;2023-04-22T14:45:30;4.90;;;3.05;;
74677;SDS011;67324;56.326;43.982;2023-04-22T14:47:57;5.10;;;3.00;;
74677;SDS011;67324;56.326;43.982;2023-04-22T14:50:23;5.57;;;3.20;;
74677;SDS011;67324;56.326;43.982;2023-04-22T14:53:08;5.43;;;2.85;;
74677;SDS011;67324;56.326;43.982;2023-04-22T14:55:34;3.50;;;2.65;;
74677;SDS011;67324;56.326;43.982;2023-04-22T14:58:00;6.03;;;3.58;;
74677;SDS011;67324;56.326;43.982;2023-04-22T15:00:26;5.30;;;3.20;;
74677;SDS011;67324;56.326;43.982;2023-04-22T15:02:53;5.13;;;2.95;;
74677;SDS011;67324;56.326;43.982;2023-04-22T15:05:19;6.50;;;3.00;;
74677;SDS011;67324;56.326;43.982;2023-04-22T15:07:48;4.78;;;3.03;;
74677;SDS011;67324;56.326;43.982;2023-04-22T15:10:33;4.32;;;2.88;;
74677;SDS011;67324;56.326;43.982;2023-04-22T15:12:59;5.55;;;2.97;;
74677;SDS011;67324;56.326;43.982;2023-04-22T15:15:25;5.40;;;3.67;;
74677;SDS011;67324;56.326;43.982;2023-04-22T15:17:51;6.85;;;3.60;;
74677;SDS011;67324;56.326;43.982;2023-04-22T15:20:17;7.07;;;3.20;;
74677;SDS011;67324;56.326;43.982;2023-04-22T15:22:43;7.10;;;3.05;;
74677;SDS011;67324;56.326;43.982;2023-04-22T15:25:10;5.90;;;3.53;;
74677;SDS011;67324;56.326;43.982;2023-04-22T15:27:36;7.10;;;3.55;;
74677;SDS011;67324;56.326;43.982;2023-04-22T15:30:03;10.50;;;3.58;;